Terminal Aerodrome Forecast
Issued by NWS New Orleans/Baton Rouge, LA

Home | Current Version | Previous Version | Text Only | Print | Product List | Glossary On
Versions: 1 2 3 4 5 6 7 8 9 10 11 12 13 14 15 16 17 18 19 20 21
000
FTUS44 KLIX 222028 AAA
TAFNEW
TAF AMD
KNEW 222028Z 2220/2318 VRB04KT P6SM SCT025 BKN090
     FM230300 12009KT P6SM SHRA VCTS BKN020CB OVC060
     FM230800 20012G24KT P6SM SHRA VCTS BKN020CB OVC050
     FM231200 25012KT P6SM SHRA VCTS BKN015CB OVC035
     FM231700 27009KT P6SM SHRA VCTS BKN020CB BKN035=

USA.gov is the U.S. government's official web portal to all federal, state and local government web resources and services.